Time;durP1;ratioP1;P1;durP2;ratioP2;P2;SDS_P1;SDS_P2;PMS_P1;PMS_P2;Temp;Humidity;BMP_temperature;BMP_pressure;BME280_temperature;BME280_humidity;BME280_pressure;Samples;Min_cycle;Max_cycle;Signal;HPM_P1;HPM_P2
2022/12/29 00:02:11;;;;;;;9.93;8.80;;;9.60;99.90;;;;;;4980905;28;20119;-75
2022/12/29 00:04:37;;;;;;;9.07;8.23;;;9.60;99.90;;;;;;4996465;28;20392;-76
2022/12/29 00:07:06;;;;;;;9.07;8.25;;;9.60;99.90;;;;;;5009759;23;20048;-81
2022/12/29 00:09:32;;;;;;;10.05;8.23;;;9.60;99.90;;;;;;5001882;28;20157;-80
2022/12/29 00:11:58;;;;;;;9.35;8.32;;;9.70;99.90;;;;;;4999091;28;20034;-80
2022/12/29 00:17:15;;;;;;;9.70;8.70;;;9.70;99.90;;;;;;4990038;28;20054;-80
2022/12/29 00:36:34;;;;;;;9.52;7.32;;;9.80;99.90;;;;;;5011137;28;20507;-80
2022/12/29 00:44:33;;;;;;;7.78;7.05;;;9.80;99.90;;;;;;5017680;28;20053;-80
2022/12/29 00:47:02;;;;;;;6.95;6.25;;;9.80;99.90;;;;;;4998084;28;20419;-81
2022/12/29 00:49:31;;;;;;;8.30;6.63;;;9.70;99.90;;;;;;5019300;28;20045;-82
2022/12/29 00:52:04;;;;;;;6.97;6.38;;;9.80;99.90;;;;;;5018223;28;20467;-80
2022/12/29 00:54:31;;;;;;;6.93;6.22;;;9.80;99.90;;;;;;5000766;28;20431;-79
2022/12/29 00:56:57;;;;;;;7.05;6.30;;;9.80;99.90;;;;;;5013194;28;20083;-81
2022/12/29 00:59:23;;;;;;;8.65;6.35;;;9.80;99.90;;;;;;5014384;28;20026;-80
2022/12/29 01:01:51;;;;;;;8.13;6.30;;;9.80;99.90;;;;;;4996174;28;20117;-80
2022/12/29 01:04:17;;;;;;;6.70;6.10;;;9.80;99.90;;;;;;4996483;28;20045;-80
2022/12/29 01:06:42;;;;;;;6.68;6.05;;;9.80;99.90;;;;;;5014025;28;20034;-80
2022/12/29 01:11:54;;;;;;;7.30;5.30;;;9.80;99.90;;;;;;5009462;28;20518;-80
2022/12/29 01:14:21;;;;;;;6.05;4.93;;;9.90;99.90;;;;;;4994226;28;20042;-80
2022/12/29 01:16:46;;;;;;;5.75;5.15;;;9.90;99.90;;;;;;4997928;28;20132;-80
2022/12/29 01:19:13;;;;;;;6.35;5.50;;;9.90;99.90;;;;;;4998453;28;20508;-80
2022/12/29 01:21:38;;;;;;;5.00;4.50;;;9.90;99.90;;;;;;4996274;28;20046;-80
2022/12/29 01:24:04;;;;;;;5.60;5.00;;;9.90;99.90;;;;;;4996228;28;20048;-80
2022/12/29 01:26:30;;;;;;;5.50;4.60;;;10.00;99.90;;;;;;4997649;28;20030;-80
2022/12/29 01:28:56;;;;;;;5.25;4.60;;;10.00;99.90;;;;;;4997898;28;20038;-80
2022/12/29 01:31:22;;;;;;;6.68;4.78;;;10.00;99.90;;;;;;5009313;28;20459;-80
2022/12/29 01:33:47;;;;;;;6.15;5.00;;;10.00;99.90;;;;;;5014319;28;20056;-80
2022/12/29 01:36:14;;;;;;;6.45;4.95;;;10.00;99.90;;;;;;4993704;28;20034;-80
2022/12/29 01:38:40;;;;;;;5.72;4.53;;;10.00;99.90;;;;;;5008796;28;20048;-80
2022/12/29 01:41:07;;;;;;;5.63;4.47;;;10.00;99.90;;;;;;5014558;28;20037;-80
2022/12/29 01:43:42;;;;;;;5.68;4.40;;;10.00;99.90;;;;;;5013867;28;20440;-81
2022/12/29 01:46:32;;;;;;;5.03;4.53;;;10.00;99.90;;;;;;4988050;28;20093;-81
2022/12/29 01:49:07;;;;;;;5.63;4.22;;;10.00;99.90;;;;;;4996394;28;20038;-80
2022/12/29 01:51:40;;;;;;;4.68;3.70;;;10.00;99.90;;;;;;5013304;28;20041;-80
2022/12/29 01:54:11;;;;;;;5.88;4.20;;;10.00;99.90;;;;;;5010423;28;20048;-80
2022/12/29 01:56:36;;;;;;;4.40;3.70;;;10.10;99.90;;;;;;4985577;28;20130;-80
2022/12/29 01:59:11;;;;;;;5.30;4.20;;;10.00;99.90;;;;;;4995238;28;20046;-80
2022/12/29 02:01:36;;;;;;;5.72;3.92;;;10.10;99.90;;;;;;4995082;28;20511;-81
2022/12/29 02:04:03;;;;;;;4.78;3.80;;;10.10;99.90;;;;;;5010677;28;20072;-81
2022/12/29 02:06:34;;;;;;;4.72;3.67;;;10.10;99.90;;;;;;4993115;28;20034;-81
2022/12/29 02:09:00;;;;;;;3.83;3.42;;;10.10;99.90;;;;;;4998021;28;20439;-81
2022/12/29 02:11:28;;;;;;;4.47;4.07;;;10.10;99.90;;;;;;5015472;28;20085;-80
2022/12/29 02:13:53;;;;;;;5.15;3.95;;;10.10;99.90;;;;;;4997560;28;20395;-81
2022/12/29 02:16:19;;;;;;;4.28;3.20;;;10.20;99.90;;;;;;4998117;28;20045;-80
2022/12/29 02:19:33;;;;;;;5.32;3.50;;;10.10;99.90;;;;;;4999089;28;20042;-82
2022/12/29 02:22:24;;;;;;;5.57;3.80;;;10.10;99.90;;;;;;4997332;28;20541;-81
2022/12/29 02:25:19;;;;;;;6.30;4.55;;;10.00;99.90;;;;;;4999180;28;20527;-81
2022/12/29 02:28:16;;;;;;;4.43;3.78;;;10.00;99.90;;;;;;4998539;28;20131;-81
2022/12/29 02:31:07;;;;;;;3.53;3.22;;;9.90;99.90;;;;;;5016305;28;20044;-81
2022/12/29 02:33:58;;;;;;;4.40;3.50;;;9.90;99.90;;;;;;5014581;28;20522;-81
2022/12/29 02:37:02;;;;;;;4.40;3.42;;;9.90;99.90;;;;;;5006368;28;20117;-81
2022/12/29 02:39:40;;;;;;;5.38;3.97;;;9.90;99.90;;;;;;5000242;28;20033;-82
2022/12/29 02:42:25;;;;;;;3.90;3.40;;;9.90;99.90;;;;;;5000008;28;20066;-80
2022/12/29 02:45:03;;;;;;;3.83;3.42;;;9.90;99.90;;;;;;5013052;28;20049;-81
2022/12/29 02:48:10;;;;;;;3.95;3.55;;;9.80;99.90;;;;;;5015772;28;20073;-81
2022/12/29 02:50:50;;;;;;;4.72;3.50;;;9.80;99.90;;;;;;4987460;28;20185;-81
2022/12/29 02:54:40;;;;;;;3.50;3.05;;;9.80;99.90;;;;;;4981646;28;20074;-81
2022/12/29 02:56:04;;;;;;;4.30;3.10;;;9.80;99.90;;;;;;5014738;28;20046;-81
2022/12/29 02:58:30;;;;;;;4.32;2.80;;;9.80;99.90;;;;;;4994205;28;20042;-80
2022/12/29 03:01:36;;;;;;;3.33;2.67;;;9.80;99.90;;;;;;5016470;28;20049;-80
2022/12/29 03:04:40;;;;;;;4.80;2.67;;;9.80;99.90;;;;;;4981559;28;20101;-80
2022/12/29 03:07:17;;;;;;;3.70;2.70;;;9.80;99.90;;;;;;4993571;28;20033;-81
2022/12/29 03:10:10;;;;;;;3.10;2.47;;;9.80;99.90;;;;;;5011517;28;20533;-80
2022/12/29 03:16:19;;;;;;;4.28;2.35;;;9.70;99.90;;;;;;5009982;28;20111;-80
2022/12/29 03:18:48;;;;;;;2.72;2.00;;;9.70;99.90;;;;;;4987886;28;20459;-81
2022/12/29 03:22:26;;;;;;;3.58;2.25;;;9.70;99.90;;;;;;4995254;28;20075;-80
2022/12/29 03:24:10;;;;;;;3.00;2.10;;;9.70;99.90;;;;;;5009852;28;20049;-80
2022/12/29 03:26:37;;;;;;;3.65;2.30;;;9.70;99.90;;;;;;5008390;28;20499;-81
2022/12/29 03:29:05;;;;;;;2.80;2.20;;;9.70;99.90;;;;;;4997386;28;20124;-81
2022/12/29 03:31:31;;;;;;;4.20;2.10;;;9.70;99.90;;;;;;4999307;28;20133;-81
2022/12/29 03:33:57;;;;;;;3.63;2.10;;;9.80;99.90;;;;;;4998485;28;20085;-80
2022/12/29 03:36:47;;;;;;;3.17;2.22;;;9.80;99.90;;;;;;5013742;28;20048;-81
2022/12/29 03:39:13;;;;;;;3.38;2.30;;;9.80;99.90;;;;;;4989512;28;20053;-81
2022/12/29 03:41:43;;;;;;;4.05;1.98;;;9.90;99.90;;;;;;5011246;28;20153;-80
2022/12/29 03:44:08;;;;;;;3.88;1.85;;;9.90;99.90;;;;;;4990179;28;20034;-80
2022/12/29 03:46:34;;;;;;;5.03;2.60;;;9.90;99.90;;;;;;5011365;28;20034;-81
2022/12/29 03:49:00;;;;;;;4.63;2.22;;;9.90;99.90;;;;;;5014257;28;20034;-80
2022/12/29 03:51:25;;;;;;;7.47;2.60;;;9.90;99.90;;;;;;4999211;28;20057;-80
2022/12/29 03:53:51;;;;;;;9.02;2.90;;;9.90;99.90;;;;;;4990539;28;20042;-80
2022/12/29 03:56:16;;;;;;;5.80;2.40;;;9.80;99.90;;;;;;4991484;28;20038;-79
2022/12/29 03:58:42;;;;;;;7.38;2.58;;;9.80;99.90;;;;;;4999536;28;20132;-79
2022/12/29 04:01:07;;;;;;;4.47;2.22;;;9.70;99.90;;;;;;5016129;28;20034;-79
2022/12/29 04:03:33;;;;;;;5.15;2.17;;;9.70;99.90;;;;;;5016146;28;20088;-80
2022/12/29 04:05:59;;;;;;;6.13;2.15;;;9.60;99.90;;;;;;4979207;28;1064731;-79
2022/12/29 04:08:24;;;;;;;4.18;1.90;;;9.70;99.90;;;;;;4996482;28;20044;-79
2022/12/29 04:10:50;;;;;;;3.47;2.00;;;9.60;99.90;;;;;;4999138;28;20403;-79
2022/12/29 04:13:16;;;;;;;5.85;2.50;;;9.50;99.90;;;;;;5001602;28;20056;-80
2022/12/29 04:15:43;;;;;;;5.97;1.95;;;9.60;99.90;;;;;;4995503;28;20038;-80
2022/12/29 04:18:09;;;;;;;4.97;1.40;;;9.50;99.90;;;;;;4994437;28;20038;-79
2022/12/29 04:23:18;;;;;;;4.57;1.40;;;9.50;99.90;;;;;;5011249;28;20052;-80
2022/12/29 04:25:48;;;;;;;4.07;1.60;;;9.50;99.90;;;;;;5017204;28;20476;-80
2022/12/29 04:28:14;;;;;;;4.65;1.83;;;9.40;99.90;;;;;;5015091;28;20034;-80
2022/12/29 04:30:40;;;;;;;5.55;1.63;;;9.40;99.90;;;;;;5017477;28;20034;-78
2022/12/29 04:33:06;;;;;;;9.40;2.88;;;9.40;99.90;;;;;;5002266;28;20510;-80
2022/12/29 04:35:31;;;;;;;9.68;1.75;;;9.40;99.90;;;;;;4998975;28;20038;-80
2022/12/29 04:37:57;;;;;;;4.97;1.30;;;9.40;99.90;;;;;;5001669;28;20172;-80
2022/12/29 04:40:23;;;;;;;5.70;1.30;;;9.30;99.90;;;;;;5002537;28;20488;-81
2022/12/29 04:42:49;;;;;;;4.40;1.13;;;9.40;99.90;;;;;;4999062;28;20038;-80
2022/12/29 04:45:15;;;;;;;6.07;1.45;;;9.40;99.90;;;;;;4998890;28;20030;-81
2022/12/29 04:47:40;;;;;;;6.15;1.20;;;9.40;99.90;;;;;;4993218;28;20052;-81
2022/12/29 04:50:07;;;;;;;5.05;1.42;;;9.40;99.90;;;;;;4997504;28;20072;-80
2022/12/29 04:52:32;;;;;;;7.20;2.05;;;9.40;99.90;;;;;;5016470;28;20473;-80
2022/12/29 04:54:58;;;;;;;5.90;1.30;;;9.40;99.90;;;;;;4998095;28;20034;-81
2022/12/29 04:57:24;;;;;;;6.03;1.33;;;9.30;99.90;;;;;;4999097;28;20103;-81
2022/12/29 04:59:49;;;;;;;5.32;1.30;;;9.40;99.90;;;;;;4999710;28;20038;-81
2022/12/29 05:02:16;;;;;;;5.93;1.25;;;9.30;99.90;;;;;;5000242;28;20488;-81
2022/12/29 05:04:41;;;;;;;3.70;1.20;;;9.40;99.90;;;;;;4997462;28;20128;-80
2022/12/29 05:07:07;;;;;;;4.28;1.20;;;9.40;99.90;;;;;;5015842;28;20062;-81
2022/12/29 05:09:33;;;;;;;6.13;1.25;;;9.40;99.90;;;;;;5016448;28;20099;-81
2022/12/29 05:11:58;;;;;;;5.55;1.55;;;9.40;99.90;;;;;;4999298;28;20539;-81
2022/12/29 05:14:24;;;;;;;5.80;1.40;;;9.30;99.90;;;;;;5001665;28;20105;-81
2022/12/29 05:16:50;;;;;;;2.97;1.02;;;9.40;99.90;;;;;;5003498;28;20046;-81
2022/12/29 05:19:16;;;;;;;4.18;1.05;;;9.40;99.90;;;;;;5000285;28;20037;-81
2022/12/29 05:21:42;;;;;;;5.15;1.30;;;9.30;99.90;;;;;;5013940;28;20045;-81
2022/12/29 05:24:07;;;;;;;5.35;1.85;;;9.30;99.90;;;;;;5013788;28;20133;-81
2022/12/29 05:26:33;;;;;;;4.97;1.50;;;9.30;99.90;;;;;;5002428;28;20522;-80
2022/12/29 05:28:59;;;;;;;5.22;1.60;;;9.30;99.90;;;;;;5014128;28;20042;-81
2022/12/29 05:31:25;;;;;;;4.05;1.63;;;9.30;99.90;;;;;;4999705;28;20121;-81
2022/12/29 05:33:51;;;;;;;6.00;1.88;;;9.40;99.90;;;;;;5012330;28;20038;-81
2022/12/29 05:36:17;;;;;;;4.05;1.80;;;9.40;99.90;;;;;;4985276;28;20041;-80
2022/12/29 05:38:43;;;;;;;5.70;1.52;;;9.40;99.90;;;;;;4995956;28;20049;-81
2022/12/29 05:41:09;;;;;;;4.57;1.70;;;9.40;99.90;;;;;;4997819;28;20128;-81
2022/12/29 05:43:34;;;;;;;3.80;1.40;;;9.40;99.90;;;;;;4994411;28;20084;-82
2022/12/29 05:46:00;;;;;;;4.50;1.70;;;9.40;99.90;;;;;;4997572;28;20451;-81
2022/12/29 05:48:25;;;;;;;4.55;1.40;;;9.40;99.90;;;;;;4997635;28;20280;-81
2022/12/29 05:50:52;;;;;;;4.05;1.20;;;9.30;99.90;;;;;;5014024;28;20038;-81
2022/12/29 05:53:18;;;;;;;6.85;1.50;;;9.30;99.90;;;;;;5013024;28;20038;-81
2022/12/29 05:55:47;;;;;;;5.22;1.15;;;9.20;99.90;;;;;;4990722;28;20110;-80
2022/12/29 05:58:13;;;;;;;5.03;1.42;;;9.20;99.90;;;;;;5012619;28;20049;-81
2022/12/29 06:00:39;;;;;;;6.68;1.20;;;9.20;99.90;;;;;;4991717;28;20034;-81
2022/12/29 06:03:04;;;;;;;6.57;1.40;;;9.20;99.90;;;;;;4989930;28;20053;-81
2022/12/29 06:05:30;;;;;;;6.07;1.58;;;9.20;99.90;;;;;;4995456;28;20164;-81
2022/12/29 06:07:55;;;;;;;7.85;1.52;;;9.20;99.90;;;;;;5008966;23;20057;-80
2022/12/29 06:10:21;;;;;;;6.47;1.42;;;9.10;99.90;;;;;;4999712;28;20041;-78
2022/12/29 06:12:47;;;;;;;6.40;1.40;;;9.10;99.90;;;;;;5013863;28;20071;-80
2022/12/29 06:15:12;;;;;;;6.15;1.58;;;9.10;99.90;;;;;;5008102;28;20047;-79
2022/12/29 06:17:39;;;;;;;5.43;1.30;;;9.10;99.90;;;;;;4999168;28;20045;-78
2022/12/29 06:20:05;;;;;;;7.90;1.70;;;9.10;99.90;;;;;;4997507;28;20074;-78
2022/12/29 06:22:31;;;;;;;4.47;1.40;;;9.20;99.90;;;;;;4980990;28;20040;-79
2022/12/29 06:24:56;;;;;;;6.82;1.40;;;9.30;99.90;;;;;;4977846;28;20121;-80
2022/12/29 06:27:22;;;;;;;6.03;1.95;;;9.30;99.90;;;;;;4981851;28;20037;-80
2022/12/29 06:29:48;;;;;;;7.80;1.60;;;9.30;99.90;;;;;;4977147;28;20042;-79
2022/12/29 06:32:13;;;;;;;4.65;1.40;;;9.30;99.90;;;;;;4976664;28;20046;-79
2022/12/29 06:34:39;;;;;;;5.95;1.52;;;9.30;99.90;;;;;;4978644;28;20053;-77
2022/12/29 06:37:04;;;;;;;5.05;1.45;;;9.30;99.90;;;;;;4995069;28;20030;-76
2022/12/29 06:39:30;;;;;;;8.75;1.75;;;9.30;99.90;;;;;;4979029;28;20037;-79
2022/12/29 06:41:56;;;;;;;5.45;1.85;;;9.30;99.90;;;;;;4993624;28;20500;-79
2022/12/29 06:44:21;;;;;;;4.65;1.50;;;9.30;99.90;;;;;;4978410;28;21106;-79
2022/12/29 06:46:48;;;;;;;8.15;2.00;;;9.30;99.90;;;;;;4972488;28;20120;-78
2022/12/29 06:49:13;;;;;;;6.93;1.55;;;9.30;99.90;;;;;;4979936;28;20030;-79
2022/12/29 06:51:39;;;;;;;7.65;1.48;;;9.20;99.90;;;;;;4993704;28;20068;-79
2022/12/29 06:54:05;;;;;;;9.23;2.42;;;9.20;99.90;;;;;;4978180;28;20045;-79
2022/12/29 06:56:30;;;;;;;7.65;1.42;;;9.30;99.90;;;;;;4982472;28;20484;-81
2022/12/29 06:58:56;;;;;;;8.77;1.80;;;9.30;99.90;;;;;;4980281;28;20041;-79
2022/12/29 07:01:21;;;;;;;10.07;2.65;;;9.30;99.90;;;;;;4980776;28;20045;-79
2022/12/29 07:03:47;;;;;;;6.53;1.80;;;9.30;99.90;;;;;;4991505;28;20038;-79
2022/12/29 07:06:13;;;;;;;6.65;1.60;;;9.30;99.90;;;;;;4980620;28;20049;-80
2022/12/29 07:08:38;;;;;;;9.57;1.73;;;9.30;99.90;;;;;;4993627;28;20034;-80
2022/12/29 07:11:05;;;;;;;8.55;1.50;;;9.30;99.90;;;;;;4983671;28;20037;-80
2022/12/29 07:13:31;;;;;;;7.07;1.80;;;9.20;99.90;;;;;;4984067;28;20119;-81
2022/12/29 07:15:56;;;;;;;8.50;1.38;;;9.20;99.90;;;;;;4984378;28;20069;-80
2022/12/29 07:18:22;;;;;;;8.90;1.88;;;9.20;99.90;;;;;;4985883;28;20061;-80
2022/12/29 07:20:47;;;;;;;10.13;1.70;;;9.20;99.90;;;;;;4980991;28;20133;-80
2022/12/29 07:23:13;;;;;;;7.97;1.85;;;9.20;99.90;;;;;;4978262;28;20034;-84
2022/12/29 07:25:40;;;;;;;9.95;1.73;;;9.20;99.90;;;;;;4998053;28;20042;-79
2022/12/29 07:28:06;;;;;;;8.82;1.67;;;9.10;99.90;;;;;;4979622;28;20141;-83
2022/12/29 07:30:31;;;;;;;6.50;1.40;;;9.10;99.90;;;;;;4978215;28;20038;-80
2022/12/29 07:32:57;;;;;;;7.63;2.10;;;9.10;99.90;;;;;;4994978;28;20396;-79
2022/12/29 07:35:23;;;;;;;9.75;2.00;;;9.10;99.90;;;;;;4978882;28;20206;-79
2022/12/29 07:37:48;;;;;;;7.20;1.80;;;9.10;99.90;;;;;;4991052;28;20065;-78
2022/12/29 07:40:14;;;;;;;7.10;1.77;;;9.10;99.90;;;;;;4992153;28;20057;-79
2022/12/29 07:42:40;;;;;;;8.23;2.20;;;9.10;99.90;;;;;;4991379;28;20126;-79
2022/12/29 07:45:06;;;;;;;6.10;1.50;;;9.20;99.90;;;;;;4986049;28;20057;-79
2022/12/29 07:47:31;;;;;;;8.18;1.58;;;9.10;99.90;;;;;;4993466;28;20038;-79
2022/12/29 07:49:57;;;;;;;8.25;1.80;;;9.10;99.90;;;;;;4993969;28;20045;-79
2022/12/29 07:52:22;;;;;;;9.73;1.80;;;9.10;99.90;;;;;;4976711;28;20061;-78
2022/12/29 07:54:48;;;;;;;7.32;1.52;;;9.10;99.90;;;;;;4977943;28;20045;-78
2022/12/29 07:57:14;;;;;;;8.90;2.08;;;9.10;99.90;;;;;;4994207;28;20038;-79
2022/12/29 07:59:39;;;;;;;9.35;1.80;;;9.10;99.90;;;;;;4978186;28;20099;-79
2022/12/29 08:02:05;;;;;;;12.52;2.17;;;9.10;99.90;;;;;;4994230;28;20040;-79
2022/12/29 08:04:30;;;;;;;10.77;2.42;;;9.10;99.90;;;;;;4974225;28;20038;-79
2022/12/29 08:06:56;;;;;;;11.70;2.67;;;9.10;99.90;;;;;;4971996;28;20435;-79
2022/12/29 08:09:21;;;;;;;11.38;2.30;;;9.10;99.90;;;;;;4991014;28;20439;-78
2022/12/29 08:11:47;;;;;;;10.55;2.00;;;9.10;99.90;;;;;;4990828;28;20050;-79
2022/12/29 08:14:13;;;;;;;10.13;2.63;;;9.10;99.90;;;;;;4978263;28;20040;-79
2022/12/29 08:16:38;;;;;;;8.88;2.35;;;9.10;99.90;;;;;;4994023;28;20045;-78
2022/12/29 08:19:04;;;;;;;13.90;2.28;;;9.10;99.90;;;;;;4997176;28;20130;-78
2022/12/29 08:21:30;;;;;;;10.65;2.90;;;9.10;99.90;;;;;;4981216;28;20129;-79
2022/12/29 08:23:56;;;;;;;12.25;2.47;;;9.10;99.90;;;;;;4997415;28;20125;-78
2022/12/29 08:26:22;;;;;;;10.95;2.15;;;9.10;99.90;;;;;;4981096;28;20045;-77
2022/12/29 08:28:47;;;;;;;12.13;2.47;;;9.10;99.90;;;;;;4997042;28;20072;-79
2022/12/29 08:31:13;;;;;;;9.57;2.17;;;9.10;99.90;;;;;;4997605;28;20120;-79
2022/12/29 08:33:38;;;;;;;9.15;2.78;;;9.10;99.90;;;;;;4997495;28;20212;-79
2022/12/29 08:36:06;;;;;;;9.82;1.95;;;9.20;99.90;;;;;;4980815;28;20507;-79
2022/12/29 08:38:32;;;;;;;9.90;1.65;;;9.10;99.90;;;;;;4996989;28;20041;-78
2022/12/29 08:40:59;;;;;;;9.15;1.80;;;9.10;99.90;;;;;;4994123;28;20515;-79
2022/12/29 08:43:25;;;;;;;8.07;2.13;;;9.10;99.90;;;;;;4990438;28;20046;-79
2022/12/29 08:45:51;;;;;;;9.55;2.22;;;9.10;99.90;;;;;;4987597;28;20043;-79
2022/12/29 08:48:19;;;;;;;8.90;1.90;;;9.10;99.90;;;;;;4997426;28;20468;-79
2022/12/29 08:50:46;;;;;;;10.10;1.70;;;9.20;99.90;;;;;;4981082;28;20384;-79
2022/12/29 08:53:11;;;;;;;9.68;2.10;;;9.10;99.90;;;;;;4996321;28;20042;-78
2022/12/29 08:55:37;;;;;;;8.02;2.15;;;9.10;99.90;;;;;;4997204;28;20034;-78
2022/12/29 08:58:03;;;;;;;10.88;2.05;;;9.20;99.90;;;;;;4993652;28;20042;-79
2022/12/29 09:00:28;;;;;;;13.80;2.65;;;9.20;99.90;;;;;;4977484;28;20125;-79
2022/12/29 09:02:54;;;;;;;8.80;1.55;;;9.20;99.90;;;;;;4978590;28;20140;-80
2022/12/29 09:05:20;;;;;;;12.93;2.63;;;9.20;99.90;;;;;;4994038;28;20074;-79
2022/12/29 09:07:45;;;;;;;7.60;1.85;;;9.20;99.90;;;;;;4995550;28;20041;-79
2022/12/29 09:10:11;;;;;;;12.40;2.85;;;9.10;99.90;;;;;;4979172;28;20029;-79
2022/12/29 09:12:36;;;;;;;6.93;1.73;;;9.00;99.90;;;;;;4972414;28;20073;-79
2022/12/29 09:15:03;;;;;;;11.20;2.80;;;9.00;99.90;;;;;;4977496;28;20050;-79
2022/12/29 09:17:44;;;;;;;6.28;1.73;;;9.00;99.90;;;;;;4993165;28;20042;-79
2022/12/29 09:20:14;;;;;;;8.23;1.67;;;9.00;99.90;;;;;;4994408;28;20038;-79
2022/12/29 09:22:40;;;;;;;12.93;2.00;;;9.00;99.90;;;;;;4988851;28;20511;-79
2022/12/29 09:25:06;;;;;;;9.82;2.22;;;9.00;99.90;;;;;;4997949;28;20157;-80
2022/12/29 09:27:32;;;;;;;11.95;2.00;;;8.90;99.90;;;;;;4999673;28;20045;-79
2022/12/29 09:29:58;;;;;;;10.02;2.40;;;8.90;99.90;;;;;;4997181;28;20045;-79
2022/12/29 09:32:23;;;;;;;12.02;1.88;;;8.90;99.90;;;;;;4980811;28;20129;-79
2022/12/29 09:34:49;;;;;;;8.98;2.17;;;8.90;99.90;;;;;;4996942;28;20124;-80
2022/12/29 09:37:14;;;;;;;12.88;2.08;;;8.90;99.90;;;;;;4991705;28;20042;-80
2022/12/29 09:39:40;;;;;;;9.15;1.98;;;8.90;99.90;;;;;;4992455;28;20045;-78
2022/12/29 09:42:18;;;;;;;6.70;1.60;;;8.90;99.90;;;;;;4997342;28;20492;-79
2022/12/29 09:45:07;;;;;;;9.38;2.28;;;8.90;99.90;;;;;;4979936;28;20037;-79
2022/12/29 09:47:32;;;;;;;12.40;2.95;;;8.80;99.90;;;;;;4992014;28;20065;-79
2022/12/29 09:50:17;;;;;;;9.63;1.77;;;8.90;99.90;;;;;;4976478;28;20488;-79
2022/12/29 09:52:55;;;;;;;11.30;2.38;;;8.90;99.90;;;;;;4994993;28;20049;-79
2022/12/29 09:55:38;;;;;;;9.05;1.95;;;8.90;99.90;;;;;;4989532;28;20042;-79
2022/12/29 09:58:05;;;;;;;;;;;8.90;99.90;;;;;;4996306;28;20053;-79
2022/12/29 10:00:57;;;;;;;8.10;2.03;;;8.90;99.90;;;;;;4979764;28;20125;-78
2022/12/29 10:03:26;;;;;;;7.05;1.75;;;8.90;99.90;;;;;;4995370;28;20038;-78
2022/12/29 10:06:01;;;;;;;8.85;2.40;;;8.90;99.90;;;;;;4993451;28;20142;-80
2022/12/29 10:08:39;;;;;;;9.90;1.90;;;8.90;99.90;;;;;;4984331;28;20030;-78
2022/12/29 10:11:07;;;;;;;11.35;2.17;;;8.90;99.90;;;;;;4996180;28;20045;-78
2022/12/29 10:13:42;;;;;;;8.43;2.17;;;8.90;99.90;;;;;;4995853;28;20515;-79
2022/12/29 10:16:54;;;;;;;8.82;2.10;;;8.80;99.90;;;;;;4979814;28;20038;-79
2022/12/29 10:19:38;;;;;;;10.45;2.83;;;8.80;99.90;;;;;;4990366;28;20046;-79
2022/12/29 10:23:06;;;;;;;8.45;2.20;;;8.80;99.90;;;;;;4991732;28;20092;-79
2022/12/29 10:25:37;;;;;;;11.00;2.10;;;8.90;99.90;;;;;;4927589;29;20083;-78
2022/12/29 10:28:10;;;;;;;7.85;2.05;;;8.90;99.90;;;;;;4916817;29;20047;-79
2022/12/29 10:30:36;;;;;;;13.15;2.65;;;9.00;99.90;;;;;;4958794;28;20555;-78
2022/12/29 10:33:07;;;;;;;9.15;1.80;;;9.10;99.90;;;;;;4959671;28;20046;-78
2022/12/29 10:35:40;;;;;;;7.68;1.60;;;9.10;99.90;;;;;;4975629;28;20121;-81
2022/12/29 10:38:27;;;;;;;6.85;1.77;;;9.10;99.90;;;;;;4994479;28;20121;-78
2022/12/29 10:41:08;;;;;;;8.20;2.38;;;9.20;99.90;;;;;;4996042;28;20041;-79
2022/12/29 10:43:48;;;;;;;5.72;2.38;;;9.20;99.90;;;;;;4995177;28;20496;-78
2022/12/29 10:46:36;;;;;;;6.80;2.30;;;9.30;99.90;;;;;;4995163;28;20053;-79
2022/12/29 10:49:02;;;;;;;7.43;2.05;;;9.30;99.90;;;;;;4979199;28;20049;-78
2022/12/29 10:51:33;;;;;;;8.23;2.13;;;9.30;99.90;;;;;;4991707;28;20455;-79
2022/12/29 10:54:27;;;;;;;7.60;2.00;;;9.30;99.90;;;;;;4991372;28;20069;-79
2022/12/29 10:56:55;;;;;;;5.85;1.90;;;9.20;99.90;;;;;;4988752;28;20129;-82
2022/12/29 10:59:23;;;;;;;7.95;2.08;;;9.20;99.90;;;;;;4992391;28;20121;-79
2022/12/29 11:02:19;;;;;;;5.88;2.00;;;9.20;99.90;;;;;;4970943;28;20407;-79
2022/12/29 11:05:10;;;;;;;8.23;2.63;;;9.10;99.90;;;;;;4976699;28;20054;-80
2022/12/29 11:07:36;;;;;;;7.97;2.15;;;9.10;99.90;;;;;;4995228;28;20042;-79
2022/12/29 11:10:30;;;;;;;9.18;2.25;;;9.10;99.90;;;;;;4995638;28;20038;-79
2022/12/29 11:12:59;;;;;;;6.30;1.73;;;9.10;99.90;;;;;;4995372;28;20129;-79
2022/12/29 11:15:25;;;;;;;7.72;2.22;;;9.10;99.90;;;;;;4978787;28;20038;-79
2022/12/29 11:17:57;;;;;;;6.20;2.00;;;9.20;99.90;;;;;;4990271;28;20088;-79
2022/12/29 11:20:29;;;;;;;7.28;2.38;;;9.20;99.90;;;;;;4966904;28;20045;-78
2022/12/29 11:22:55;;;;;;;9.20;2.63;;;9.10;99.90;;;;;;4976042;28;20068;-80
2022/12/29 11:25:20;;;;;;;12.10;3.08;;;9.10;99.90;;;;;;4998514;28;20046;-81
2022/12/29 11:27:59;;;;;;;7.50;2.72;;;9.00;99.90;;;;;;4978094;28;20034;-80
2022/12/29 11:30:28;;;;;;;12.93;2.65;;;9.00;99.90;;;;;;4980295;28;20097;-79
2022/12/29 11:32:55;;;;;;;10.57;2.50;;;8.90;99.90;;;;;;4996289;28;20076;-79
2022/12/29 11:35:42;;;;;;;11.65;2.50;;;8.90;99.90;;;;;;4997238;28;20065;-79
2022/12/29 11:38:36;;;;;;;10.10;2.90;;;9.00;99.90;;;;;;4988106;28;20038;-79
2022/12/29 11:41:03;;;;;;;10.40;2.63;;;9.00;99.90;;;;;;4978913;28;20046;-79
2022/12/29 11:43:37;;;;;;;11.95;3.30;;;9.10;99.90;;;;;;4995031;28;20121;-79
2022/12/29 11:46:04;;;;;;;13.02;2.90;;;9.30;99.90;;;;;;4977644;28;20045;-79
2022/12/29 11:48:41;;;;;;;13.90;3.00;;;9.40;99.90;;;;;;4995627;28;20042;-79
2022/12/29 11:51:08;;;;;;;11.93;3.08;;;9.50;99.90;;;;;;4998920;28;20038;-80
2022/12/29 11:53:36;;;;;;;12.00;2.88;;;9.60;99.90;;;;;;4996944;28;20111;-79
2022/12/29 11:56:10;;;;;;;11.90;2.67;;;9.70;99.90;;;;;;4998795;28;20492;-78
2022/12/29 11:58:37;;;;;;;10.60;2.72;;;9.80;99.90;;;;;;4998708;28;20084;-78
2022/12/29 12:01:06;;;;;;;14.23;3.40;;;9.90;99.90;;;;;;4998781;28;20080;-79
2022/12/29 12:03:36;;;;;;;11.82;3.10;;;10.10;99.90;;;;;;4981277;28;20052;-79
2022/12/29 12:09:05;;;;;;;12.57;2.90;;;9.90;99.90;;;;;;5083154;23;20053;-79
2022/12/29 12:11:36;;;;;;;;;;;9.70;99.90;;;;;;4997964;28;20140;-79
2022/12/29 12:14:12;;;;;;;9.90;2.80;;;9.60;99.90;;;;;;5038862;28;19959;-80
2022/12/29 12:16:44;;;;;;;11.13;2.33;;;9.50;99.90;;;;;;5021686;28;20037;-79
2022/12/29 12:19:31;;;;;;;8.57;1.90;;;9.20;99.90;;;;;;5013080;28;20033;-80
2022/12/29 12:22:07;;;;;;;9.43;2.55;;;8.90;99.90;;;;;;5038998;28;20063;-79
2022/12/29 12:25:02;;;;;;;14.23;2.88;;;8.70;99.90;;;;;;5038515;28;20041;-79
2022/12/29 12:27:49;;;;;;;14.50;3.05;;;8.90;99.90;;;;;;5037566;28;20111;-78
2022/12/29 12:30:28;;;;;;;15.27;3.25;;;9.20;99.90;;;;;;5037356;28;20037;-79
2022/12/29 12:33:16;;;;;;;17.73;3.28;;;9.30;99.90;;;;;;5035591;28;20041;-79
2022/12/29 12:36:26;;;;;;;13.95;3.15;;;9.40;99.90;;;;;;5021532;28;20098;-79
2022/12/29 12:39:10;;;;;;;13.70;2.75;;;9.30;99.90;;;;;;5037203;28;20418;-78
2022/12/29 12:42:24;;;;;;;16.75;3.60;;;9.20;99.90;;;;;;5020693;28;20041;-78
2022/12/29 12:44:59;;;;;;;15.13;3.13;;;9.20;99.90;;;;;;5012322;28;20045;-78
2022/12/29 12:47:55;;;;;;;15.82;3.90;;;9.10;99.90;;;;;;5036618;28;20090;-78
2022/12/29 12:50:59;;;;;;;15.35;3.08;;;9.10;99.90;;;;;;5037211;28;20483;-78
2022/12/29 12:53:33;;;;;;;16.35;3.30;;;9.10;99.90;;;;;;5036031;28;20033;-78
2022/12/29 12:56:02;;;;;;;22.38;4.32;;;9.10;99.90;;;;;;5036756;28;20037;-78
2022/12/29 12:58:51;;;;;;;15.27;2.90;;;9.00;99.90;;;;;;5036301;28;20041;-78
2022/12/29 13:01:36;;;;;;;16.58;3.45;;;9.00;99.90;;;;;;5028636;28;20029;-78
2022/12/29 13:04:16;;;;;;;15.95;3.75;;;9.00;99.90;;;;;;5036540;28;20048;-79
2022/12/29 13:07:27;;;;;;;17.05;3.65;;;9.00;99.90;;;;;;5035785;28;20086;-79
2022/12/29 13:10:22;;;;;;;13.38;2.55;;;8.90;99.90;;;;;;5008711;28;20169;-78
2022/12/29 13:13:12;;;;;;;16.52;2.65;;;9.00;99.90;;;;;;5037039;28;20410;-79
2022/12/29 13:15:51;;;;;;;12.85;3.05;;;9.10;99.90;;;;;;5036541;28;20088;-78
2022/12/29 13:18:27;;;;;;;13.20;2.75;;;9.10;99.90;;;;;;5022318;28;20044;-78
2022/12/29 13:21:13;;;;;;;12.60;3.03;;;9.10;99.90;;;;;;5032919;28;20037;-78
2022/12/29 13:23:57;;;;;;;14.80;3.08;;;9.10;99.90;;;;;;5031531;28;20344;-78
2022/12/29 13:26:43;;;;;;;11.68;2.22;;;9.00;99.90;;;;;;5016053;28;20128;-78
2022/12/29 13:29:18;;;;;;;13.18;2.65;;;8.90;99.90;;;;;;5002384;28;20554;-78
2022/12/29 13:31:50;;;;;;;9.60;2.50;;;9.00;99.90;;;;;;5033676;28;20045;-78
2022/12/29 13:34:39;;;;;;;12.30;2.97;;;9.00;99.90;;;;;;5028378;28;20041;-78
2022/12/29 13:37:15;;;;;;;14.27;3.75;;;9.00;99.90;;;;;;5035431;28;20049;-78
2022/12/29 13:39:47;;;;;;;15.05;2.88;;;8.90;99.90;;;;;;5018109;28;20066;-78
2022/12/29 13:42:13;;;;;;;15.30;3.85;;;8.80;99.90;;;;;;5009955;28;20036;-78
2022/12/29 13:44:44;;;;;;;13.85;2.72;;;8.80;99.90;;;;;;5035152;28;20094;-78
2022/12/29 13:47:37;;;;;;;14.82;2.70;;;8.80;99.90;;;;;;5035079;28;20052;-78
2022/12/29 13:50:11;;;;;;;12.52;2.40;;;8.70;99.90;;;;;;5018965;28;20037;-78
2022/12/29 13:52:58;;;;;;;12.68;2.78;;;8.70;99.90;;;;;;5018911;28;20098;-78
2022/12/29 13:55:51;;;;;;;12.05;2.85;;;8.70;99.90;;;;;;5014747;28;20041;-78